sensor_id;sensor_type;location;lat;lon;timestamp;P1;durP1;ratioP1;P2;durP2;ratioP2
48897;SDS011;34713;50.038;20.000;2023-02-03T00:01:43;9.90;;;5.10;;
48897;SDS011;34713;50.038;20.000;2023-02-03T00:04:10;10.40;;;4.90;;
48897;SDS011;34713;50.038;20.000;2023-02-03T00:06:36;12.60;;;6.00;;
48897;SDS011;34713;50.038;20.000;2023-02-03T00:09:03;9.20;;;5.20;;
48897;SDS011;34713;50.038;20.000;2023-02-03T00:11:29;10.30;;;5.10;;
48897;SDS011;34713;50.038;20.000;2023-02-03T00:13:56;10.30;;;5.30;;
48897;SDS011;34713;50.038;20.000;2023-02-03T00:16:23;9.10;;;4.70;;
48897;SDS011;34713;50.038;20.000;2023-02-03T00:18:49;14.20;;;6.60;;
48897;SDS011;34713;50.038;20.000;2023-02-03T00:21:16;9.70;;;5.60;;
48897;SDS011;34713;50.038;20.000;2023-02-03T00:23:43;11.20;;;5.90;;
48897;SDS011;34713;50.038;20.000;2023-02-03T00:26:10;9.10;;;5.40;;
48897;SDS011;34713;50.038;20.000;2023-02-03T00:28:38;8.60;;;5.20;;
48897;SDS011;34713;50.038;20.000;2023-02-03T00:31:05;11.70;;;5.20;;
48897;SDS011;34713;50.038;20.000;2023-02-03T00:33:40;8.90;;;5.00;;
48897;SDS011;34713;50.038;20.000;2023-02-03T00:36:06;10.70;;;5.10;;
48897;SDS011;34713;50.038;20.000;2023-02-03T00:38:33;9.00;;;5.50;;
48897;SDS011;34713;50.038;20.000;2023-02-03T00:41:00;10.30;;;5.00;;
48897;SDS011;34713;50.038;20.000;2023-02-03T00:43:27;9.60;;;5.20;;
48897;SDS011;34713;50.038;20.000;2023-02-03T00:45:54;10.60;;;4.60;;
48897;SDS011;34713;50.038;20.000;2023-02-03T00:48:20;8.70;;;4.60;;
48897;SDS011;34713;50.038;20.000;2023-02-03T00:50:47;9.30;;;5.10;;
48897;SDS011;34713;50.038;20.000;2023-02-03T00:53:14;8.40;;;4.70;;
48897;SDS011;34713;50.038;20.000;2023-02-03T00:55:43;8.30;;;4.70;;
48897;SDS011;34713;50.038;20.000;2023-02-03T00:58:10;7.50;;;4.10;;
48897;SDS011;34713;50.038;20.000;2023-02-03T01:00:37;10.50;;;4.80;;
48897;SDS011;34713;50.038;20.000;2023-02-03T01:03:03;10.10;;;4.40;;
48897;SDS011;34713;50.038;20.000;2023-02-03T01:05:30;10.20;;;5.50;;
48897;SDS011;34713;50.038;20.000;2023-02-03T01:07:57;8.90;;;4.70;;
48897;SDS011;34713;50.038;20.000;2023-02-03T01:10:23;7.80;;;4.80;;
48897;SDS011;34713;50.038;20.000;2023-02-03T01:12:50;9.30;;;4.70;;
48897;SDS011;34713;50.038;20.000;2023-02-03T01:15:16;8.70;;;4.20;;
48897;SDS011;34713;50.038;20.000;2023-02-03T01:17:43;8.10;;;4.00;;
48897;SDS011;34713;50.038;20.000;2023-02-03T01:20:10;6.30;;;4.00;;
48897;SDS011;34713;50.038;20.000;2023-02-03T01:22:42;9.50;;;4.30;;
48897;SDS011;34713;50.038;20.000;2023-02-03T01:25:08;7.00;;;4.40;;
48897;SDS011;34713;50.038;20.000;2023-02-03T01:27:35;10.30;;;4.50;;
48897;SDS011;34713;50.038;20.000;2023-02-03T01:30:01;10.00;;;4.90;;
48897;SDS011;34713;50.038;20.000;2023-02-03T01:32:28;12.70;;;4.80;;
48897;SDS011;34713;50.038;20.000;2023-02-03T01:34:55;10.30;;;5.20;;
48897;SDS011;34713;50.038;20.000;2023-02-03T01:37:21;10.80;;;5.60;;
48897;SDS011;34713;50.038;20.000;2023-02-03T01:39:48;9.20;;;4.60;;
48897;SDS011;34713;50.038;20.000;2023-02-03T01:42:15;10.30;;;5.70;;
48897;SDS011;34713;50.038;20.000;2023-02-03T01:47:11;7.50;;;5.10;;
48897;SDS011;34713;50.038;20.000;2023-02-03T01:49:43;9.60;;;5.80;;
48897;SDS011;34713;50.038;20.000;2023-02-03T01:52:12;10.70;;;5.40;;
48897;SDS011;34713;50.038;20.000;2023-02-03T01:54:39;11.60;;;6.00;;
48897;SDS011;34713;50.038;20.000;2023-02-03T01:57:12;10.90;;;5.90;;
48897;SDS011;34713;50.038;20.000;2023-02-03T01:59:42;10.90;;;5.40;;
48897;SDS011;34713;50.038;20.000;2023-02-03T02:02:09;11.20;;;5.60;;
48897;SDS011;34713;50.038;20.000;2023-02-03T02:04:38;9.10;;;5.10;;
48897;SDS011;34713;50.038;20.000;2023-02-03T02:07:30;8.50;;;4.60;;
48897;SDS011;34713;50.038;20.000;2023-02-03T02:09:57;10.20;;;4.30;;
48897;SDS011;34713;50.038;20.000;2023-02-03T02:12:24;7.50;;;4.50;;
48897;SDS011;34713;50.038;20.000;2023-02-03T02:14:51;7.60;;;4.70;;
48897;SDS011;34713;50.038;20.000;2023-02-03T02:28:19;11.50;;;5.20;;
48897;SDS011;34713;50.038;20.000;2023-02-03T02:39:57;8.70;;;4.50;;
48897;SDS011;34713;50.038;20.000;2023-02-03T02:42:31;11.90;;;5.10;;
48897;SDS011;34713;50.038;20.000;2023-02-03T02:45:05;9.80;;;4.90;;
48897;SDS011;34713;50.038;20.000;2023-02-03T02:50:04;9.20;;;4.70;;
48897;SDS011;34713;50.038;20.000;2023-02-03T02:52:36;8.00;;;4.60;;
48897;SDS011;34713;50.038;20.000;2023-02-03T02:55:09;9.50;;;4.80;;
48897;SDS011;34713;50.038;20.000;2023-02-03T02:57:39;9.90;;;5.50;;
48897;SDS011;34713;50.038;20.000;2023-02-03T03:00:07;12.60;;;5.70;;
48897;SDS011;34713;50.038;20.000;2023-02-03T03:02:35;8.30;;;4.90;;
48897;SDS011;34713;50.038;20.000;2023-02-03T03:05:05;11.00;;;6.60;;
48897;SDS011;34713;50.038;20.000;2023-02-03T03:07:37;12.90;;;6.20;;
48897;SDS011;34713;50.038;20.000;2023-02-03T03:10:08;12.60;;;5.80;;
48897;SDS011;34713;50.038;20.000;2023-02-03T03:12:38;11.30;;;6.10;;
48897;SDS011;34713;50.038;20.000;2023-02-03T03:15:10;12.20;;;6.80;;
48897;SDS011;34713;50.038;20.000;2023-02-03T03:17:41;12.90;;;6.20;;
48897;SDS011;34713;50.038;20.000;2023-02-03T03:20:14;14.00;;;6.30;;
48897;SDS011;34713;50.038;20.000;2023-02-03T03:22:44;10.30;;;5.40;;
48897;SDS011;34713;50.038;20.000;2023-02-03T03:25:15;9.20;;;5.30;;
48897;SDS011;34713;50.038;20.000;2023-02-03T03:27:54;13.50;;;5.60;;
48897;SDS011;34713;50.038;20.000;2023-02-03T03:30:33;10.80;;;5.70;;
48897;SDS011;34713;50.038;20.000;2023-02-03T03:33:02;12.00;;;5.40;;
48897;SDS011;34713;50.038;20.000;2023-02-03T03:38:20;12.90;;;5.20;;
48897;SDS011;34713;50.038;20.000;2023-02-03T03:40:53;11.80;;;5.40;;
48897;SDS011;34713;50.038;20.000;2023-02-03T03:43:27;11.00;;;5.00;;
48897;SDS011;34713;50.038;20.000;2023-02-03T03:45:59;11.00;;;5.80;;
48897;SDS011;34713;50.038;20.000;2023-02-03T03:51:03;10.50;;;5.10;;
48897;SDS011;34713;50.038;20.000;2023-02-03T03:53:34;9.40;;;5.00;;
48897;SDS011;34713;50.038;20.000;2023-02-03T03:56:02;10.90;;;5.60;;
48897;SDS011;34713;50.038;20.000;2023-02-03T03:58:32;9.60;;;4.90;;
48897;SDS011;34713;50.038;20.000;2023-02-03T04:00:59;10.90;;;5.70;;
48897;SDS011;34713;50.038;20.000;2023-02-03T04:03:32;14.40;;;5.20;;
48897;SDS011;34713;50.038;20.000;2023-02-03T04:06:06;9.30;;;5.20;;
48897;SDS011;34713;50.038;20.000;2023-02-03T04:08:32;12.00;;;5.40;;
48897;SDS011;34713;50.038;20.000;2023-02-03T04:10:59;10.20;;;5.50;;
48897;SDS011;34713;50.038;20.000;2023-02-03T04:13:25;9.40;;;4.90;;
48897;SDS011;34713;50.038;20.000;2023-02-03T04:15:52;9.80;;;5.00;;
48897;SDS011;34713;50.038;20.000;2023-02-03T04:18:19;11.50;;;4.80;;
48897;SDS011;34713;50.038;20.000;2023-02-03T04:20:45;9.50;;;4.60;;
48897;SDS011;34713;50.038;20.000;2023-02-03T04:23:12;11.10;;;4.90;;
48897;SDS011;34713;50.038;20.000;2023-02-03T04:25:38;13.20;;;5.30;;
48897;SDS011;34713;50.038;20.000;2023-02-03T04:28:05;9.20;;;5.50;;
48897;SDS011;34713;50.038;20.000;2023-02-03T04:30:31;9.20;;;5.30;;
48897;SDS011;34713;50.038;20.000;2023-02-03T04:32:58;8.70;;;5.40;;
48897;SDS011;34713;50.038;20.000;2023-02-03T04:35:25;10.50;;;5.30;;
48897;SDS011;34713;50.038;20.000;2023-02-03T04:37:51;11.80;;;5.70;;
48897;SDS011;34713;50.038;20.000;2023-02-03T04:40:18;8.40;;;5.50;;
48897;SDS011;34713;50.038;20.000;2023-02-03T04:42:45;12.60;;;5.90;;
48897;SDS011;34713;50.038;20.000;2023-02-03T04:45:11;10.10;;;5.30;;
48897;SDS011;34713;50.038;20.000;2023-02-03T04:47:38;9.90;;;5.60;;
48897;SDS011;34713;50.038;20.000;2023-02-03T04:50:05;9.80;;;5.40;;
48897;SDS011;34713;50.038;20.000;2023-02-03T04:52:32;10.90;;;4.80;;
48897;SDS011;34713;50.038;20.000;2023-02-03T04:54:58;7.90;;;4.30;;
48897;SDS011;34713;50.038;20.000;2023-02-03T04:57:25;8.50;;;4.50;;
48897;SDS011;34713;50.038;20.000;2023-02-03T04:59:51;9.40;;;5.20;;
48897;SDS011;34713;50.038;20.000;2023-02-03T05:02:18;8.80;;;4.70;;
48897;SDS011;34713;50.038;20.000;2023-02-03T05:04:44;10.10;;;5.40;;
48897;SDS011;34713;50.038;20.000;2023-02-03T05:07:11;11.40;;;5.30;;
48897;SDS011;34713;50.038;20.000;2023-02-03T05:09:37;8.80;;;5.30;;
48897;SDS011;34713;50.038;20.000;2023-02-03T05:12:04;10.00;;;6.20;;
48897;SDS011;34713;50.038;20.000;2023-02-03T05:14:31;10.90;;;5.50;;
48897;SDS011;34713;50.038;20.000;2023-02-03T05:16:57;9.50;;;5.70;;
48897;SDS011;34713;50.038;20.000;2023-02-03T05:19:24;9.80;;;5.70;;
48897;SDS011;34713;50.038;20.000;2023-02-03T05:21:50;12.80;;;6.20;;
48897;SDS011;34713;50.038;20.000;2023-02-03T05:24:17;11.40;;;6.40;;
48897;SDS011;34713;50.038;20.000;2023-02-03T05:26:43;13.30;;;6.90;;
48897;SDS011;34713;50.038;20.000;2023-02-03T05:29:10;11.20;;;6.30;;
48897;SDS011;34713;50.038;20.000;2023-02-03T05:31:37;14.30;;;6.60;;
48897;SDS011;34713;50.038;20.000;2023-02-03T05:34:03;12.90;;;7.10;;
48897;SDS011;34713;50.038;20.000;2023-02-03T05:36:30;13.10;;;7.20;;
48897;SDS011;34713;50.038;20.000;2023-02-03T05:38:57;13.50;;;6.50;;
48897;SDS011;34713;50.038;20.000;2023-02-03T05:41:23;12.00;;;7.20;;
48897;SDS011;34713;50.038;20.000;2023-02-03T05:44:08;13.70;;;6.20;;
48897;SDS011;34713;50.038;20.000;2023-02-03T05:46:35;12.80;;;7.00;;
48897;SDS011;34713;50.038;20.000;2023-02-03T05:49:01;11.70;;;7.30;;
48897;SDS011;34713;50.038;20.000;2023-02-03T05:51:28;12.10;;;6.20;;
48897;SDS011;34713;50.038;20.000;2023-02-03T05:53:54;11.40;;;6.60;;
48897;SDS011;34713;50.038;20.000;2023-02-03T05:56:21;13.30;;;7.80;;
48897;SDS011;34713;50.038;20.000;2023-02-03T05:58:48;15.80;;;8.70;;
48897;SDS011;34713;50.038;20.000;2023-02-03T06:01:18;12.90;;;7.40;;
48897;SDS011;34713;50.038;20.000;2023-02-03T06:03:45;13.20;;;7.30;;
48897;SDS011;34713;50.038;20.000;2023-02-03T06:06:12;11.90;;;7.20;;
48897;SDS011;34713;50.038;20.000;2023-02-03T06:08:39;13.70;;;7.70;;
48897;SDS011;34713;50.038;20.000;2023-02-03T06:11:05;14.80;;;7.40;;
48897;SDS011;34713;50.038;20.000;2023-02-03T06:13:32;13.80;;;7.80;;
48897;SDS011;34713;50.038;20.000;2023-02-03T06:15:58;12.00;;;7.00;;
48897;SDS011;34713;50.038;20.000;2023-02-03T06:18:25;15.10;;;7.50;;
48897;SDS011;34713;50.038;20.000;2023-02-03T06:20:51;13.20;;;7.20;;
48897;SDS011;34713;50.038;20.000;2023-02-03T06:23:18;12.00;;;6.70;;
48897;SDS011;34713;50.038;20.000;2023-02-03T06:25:48;11.40;;;6.50;;
48897;SDS011;34713;50.038;20.000;2023-02-03T06:28:17;13.40;;;7.30;;
48897;SDS011;34713;50.038;20.000;2023-02-03T06:30:43;11.70;;;6.30;;
48897;SDS011;34713;50.038;20.000;2023-02-03T06:33:10;12.50;;;6.30;;
48897;SDS011;34713;50.038;20.000;2023-02-03T06:35:37;10.50;;;6.10;;
48897;SDS011;34713;50.038;20.000;2023-02-03T06:38:03;13.10;;;6.90;;
48897;SDS011;34713;50.038;20.000;2023-02-03T06:40:30;13.10;;;6.50;;
48897;SDS011;34713;50.038;20.000;2023-02-03T06:42:56;12.80;;;6.60;;
48897;SDS011;34713;50.038;20.000;2023-02-03T06:45:23;12.30;;;6.70;;
48897;SDS011;34713;50.038;20.000;2023-02-03T06:47:50;12.40;;;6.60;;
48897;SDS011;34713;50.038;20.000;2023-02-03T06:50:16;14.80;;;7.00;;
48897;SDS011;34713;50.038;20.000;2023-02-03T06:52:43;14.10;;;7.50;;
48897;SDS011;34713;50.038;20.000;2023-02-03T06:55:10;14.50;;;6.90;;
48897;SDS011;34713;50.038;20.000;2023-02-03T06:57:43;12.20;;;6.80;;
48897;SDS011;34713;50.038;20.000;2023-02-03T07:00:11;14.90;;;7.20;;
48897;SDS011;34713;50.038;20.000;2023-02-03T07:02:39;14.00;;;7.20;;
48897;SDS011;34713;50.038;20.000;2023-02-03T07:05:05;11.40;;;6.60;;
48897;SDS011;34713;50.038;20.000;2023-02-03T07:07:32;11.70;;;5.90;;
48897;SDS011;34713;50.038;20.000;2023-02-03T07:09:59;11.30;;;6.40;;
48897;SDS011;34713;50.038;20.000;2023-02-03T07:12:26;9.30;;;5.60;;
48897;SDS011;34713;50.038;20.000;2023-02-03T07:14:53;10.60;;;5.60;;
48897;SDS011;34713;50.038;20.000;2023-02-03T07:17:19;11.10;;;5.90;;
48897;SDS011;34713;50.038;20.000;2023-02-03T07:19:46;11.00;;;5.20;;
48897;SDS011;34713;50.038;20.000;2023-02-03T07:22:13;10.40;;;5.70;;
48897;SDS011;34713;50.038;20.000;2023-02-03T07:24:39;11.70;;;6.20;;
48897;SDS011;34713;50.038;20.000;2023-02-03T07:27:06;12.20;;;6.10;;
48897;SDS011;34713;50.038;20.000;2023-02-03T07:29:32;10.40;;;5.60;;
48897;SDS011;34713;50.038;20.000;2023-02-03T07:31:59;11.80;;;5.00;;
48897;SDS011;34713;50.038;20.000;2023-02-03T07:34:27;12.70;;;5.00;;
48897;SDS011;34713;50.038;20.000;2023-02-03T07:36:55;7.30;;;4.90;;
48897;SDS011;34713;50.038;20.000;2023-02-03T07:39:22;7.80;;;4.20;;
48897;SDS011;34713;50.038;20.000;2023-02-03T07:41:48;8.30;;;4.60;;
48897;SDS011;34713;50.038;20.000;2023-02-03T07:44:15;7.90;;;4.30;;
48897;SDS011;34713;50.038;20.000;2023-02-03T07:46:41;8.00;;;4.60;;
48897;SDS011;34713;50.038;20.000;2023-02-03T07:49:10;9.00;;;4.20;;
48897;SDS011;34713;50.038;20.000;2023-02-03T07:51:37;10.50;;;4.40;;
48897;SDS011;34713;50.038;20.000;2023-02-03T07:54:04;7.50;;;4.00;;
48897;SDS011;34713;50.038;20.000;2023-02-03T07:56:31;9.20;;;4.80;;
48897;SDS011;34713;50.038;20.000;2023-02-03T07:58:58;10.00;;;4.70;;
48897;SDS011;34713;50.038;20.000;2023-02-03T08:01:25;10.40;;;4.80;;
48897;SDS011;34713;50.038;20.000;2023-02-03T08:03:52;9.30;;;5.00;;
48897;SDS011;34713;50.038;20.000;2023-02-03T08:06:18;8.90;;;4.40;;
48897;SDS011;34713;50.038;20.000;2023-02-03T08:08:45;7.80;;;4.00;;
48897;SDS011;34713;50.038;20.000;2023-02-03T08:11:11;10.30;;;4.50;;
48897;SDS011;34713;50.038;20.000;2023-02-03T08:13:38;7.20;;;3.50;;
48897;SDS011;34713;50.038;20.000;2023-02-03T08:16:05;7.60;;;4.00;;
48897;SDS011;34713;50.038;20.000;2023-02-03T08:18:32;9.60;;;4.30;;
48897;SDS011;34713;50.038;20.000;2023-02-03T08:20:58;9.80;;;4.40;;
48897;SDS011;34713;50.038;20.000;2023-02-03T08:23:25;7.90;;;4.20;;
48897;SDS011;34713;50.038;20.000;2023-02-03T08:25:52;8.10;;;3.70;;
48897;SDS011;34713;50.038;20.000;2023-02-03T08:28:19;8.20;;;3.70;;
48897;SDS011;34713;50.038;20.000;2023-02-03T08:30:45;6.70;;;3.90;;
48897;SDS011;34713;50.038;20.000;2023-02-03T08:33:12;9.00;;;3.60;;
48897;SDS011;34713;50.038;20.000;2023-02-03T08:35:39;6.20;;;3.40;;
48897;SDS011;34713;50.038;20.000;2023-02-03T08:38:05;7.80;;;3.30;;
48897;SDS011;34713;50.038;20.000;2023-02-03T08:40:32;6.80;;;3.50;;
48897;SDS011;34713;50.038;20.000;2023-02-03T08:42:58;6.00;;;3.10;;
48897;SDS011;34713;50.038;20.000;2023-02-03T08:45:25;5.80;;;3.20;;
48897;SDS011;34713;50.038;20.000;2023-02-03T08:47:52;6.40;;;3.40;;
48897;SDS011;34713;50.038;20.000;2023-02-03T08:50:18;7.00;;;3.80;;
48897;SDS011;34713;50.038;20.000;2023-02-03T08:52:45;6.00;;;3.40;;
48897;SDS011;34713;50.038;20.000;2023-02-03T08:55:11;7.10;;;3.40;;
48897;SDS011;34713;50.038;20.000;2023-02-03T08:57:38;7.10;;;3.70;;
48897;SDS011;34713;50.038;20.000;2023-02-03T09:00:07;7.30;;;3.40;;
48897;SDS011;34713;50.038;20.000;2023-02-03T09:02:35;6.40;;;3.40;;
48897;SDS011;34713;50.038;20.000;2023-02-03T09:05:01;6.80;;;3.00;;
48897;SDS011;34713;50.038;20.000;2023-02-03T09:07:28;4.70;;;2.90;;
48897;SDS011;34713;50.038;20.000;2023-02-03T09:09:55;6.60;;;2.90;;
48897;SDS011;34713;50.038;20.000;2023-02-03T09:12:22;10.80;;;2.80;;
48897;SDS011;34713;50.038;20.000;2023-02-03T09:14:49;5.90;;;2.50;;
48897;SDS011;34713;50.038;20.000;2023-02-03T09:17:16;6.50;;;3.00;;
48897;SDS011;34713;50.038;20.000;2023-02-03T09:19:42;7.30;;;3.10;;
48897;SDS011;34713;50.038;20.000;2023-02-03T09:22:09;5.70;;;3.10;;
48897;SDS011;34713;50.038;20.000;2023-02-03T09:24:35;6.20;;;3.20;;
48897;SDS011;34713;50.038;20.000;2023-02-03T09:27:02;7.20;;;3.30;;
48897;SDS011;34713;50.038;20.000;2023-02-03T09:29:28;6.30;;;2.80;;
48897;SDS011;34713;50.038;20.000;2023-02-03T09:31:55;6.30;;;2.80;;
48897;SDS011;34713;50.038;20.000;2023-02-03T09:34:22;5.80;;;3.10;;
48897;SDS011;34713;50.038;20.000;2023-02-03T09:36:48;6.40;;;3.20;;
48897;SDS011;34713;50.038;20.000;2023-02-03T09:39:16;6.20;;;3.30;;
48897;SDS011;34713;50.038;20.000;2023-02-03T09:47:08;5.80;;;3.10;;
48897;SDS011;34713;50.038;20.000;2023-02-03T09:49:38;6.90;;;3.10;;
48897;SDS011;34713;50.038;20.000;2023-02-03T09:54:42;6.60;;;3.40;;
48897;SDS011;34713;50.038;20.000;2023-02-03T09:57:22;7.00;;;3.10;;
48897;SDS011;34713;50.038;20.000;2023-02-03T09:59:51;6.00;;;2.80;;
48897;SDS011;34713;50.038;20.000;2023-02-03T10:05:00;6.90;;;3.40;;
48897;SDS011;34713;50.038;20.000;2023-02-03T10:07:34;5.70;;;2.90;;
48897;SDS011;34713;50.038;20.000;2023-02-03T10:13:11;6.10;;;2.40;;
48897;SDS011;34713;50.038;20.000;2023-02-03T10:15:52;5.10;;;2.50;;
48897;SDS011;34713;50.038;20.000;2023-02-03T10:18:29;4.40;;;2.60;;
48897;SDS011;34713;50.038;20.000;2023-02-03T10:21:18;5.30;;;2.50;;
48897;SDS011;34713;50.038;20.000;2023-02-03T10:23:49;4.50;;;2.50;;
48897;SDS011;34713;50.038;20.000;2023-02-03T10:26:18;5.40;;;2.50;;
48897;SDS011;34713;50.038;20.000;2023-02-03T10:29:30;7.80;;;2.80;;
48897;SDS011;34713;50.038;20.000;2023-02-03T10:31:46;5.10;;;2.90;;
48897;SDS011;34713;50.038;20.000;2023-02-03T10:34:14;5.40;;;2.80;;
48897;SDS011;34713;50.038;20.000;2023-02-03T10:36:52;5.10;;;3.00;;
48897;SDS011;34713;50.038;20.000;2023-02-03T10:42:06;5.00;;;2.40;;
48897;SDS011;34713;50.038;20.000;2023-02-03T10:44:35;6.30;;;2.50;;
48897;SDS011;34713;50.038;20.000;2023-02-03T10:47:29;4.90;;;2.20;;
48897;SDS011;34713;50.038;20.000;2023-02-03T10:49:56;5.20;;;2.40;;
48897;SDS011;34713;50.038;20.000;2023-02-03T10:52:30;6.50;;;2.70;;
48897;SDS011;34713;50.038;20.000;2023-02-03T10:55:45;4.90;;;2.70;;
48897;SDS011;34713;50.038;20.000;2023-02-03T10:57:52;4.50;;;2.40;;
48897;SDS011;34713;50.038;20.000;2023-02-03T11:02:53;5.40;;;2.70;;
48897;SDS011;34713;50.038;20.000;2023-02-03T11:05:21;4.70;;;2.50;;
48897;SDS011;34713;50.038;20.000;2023-02-03T11:07:50;4.10;;;2.10;;
48897;SDS011;34713;50.038;20.000;2023-02-03T11:13:09;4.70;;;2.20;;
48897;SDS011;34713;50.038;20.000;2023-02-03T11:15:42;4.40;;;2.20;;
48897;SDS011;34713;50.038;20.000;2023-02-03T11:21:15;5.50;;;3.10;;
48897;SDS011;34713;50.038;20.000;2023-02-03T11:23:48;5.70;;;2.70;;
48897;SDS011;34713;50.038;20.000;2023-02-03T11:26:18;7.20;;;3.60;;
48897;SDS011;34713;50.038;20.000;2023-02-03T11:28:48;7.10;;;3.90;;
48897;SDS011;34713;50.038;20.000;2023-02-03T11:31:20;8.20;;;4.00;;
48897;SDS011;34713;50.038;20.000;2023-02-03T11:34:04;9.50;;;3.80;;
48897;SDS011;34713;50.038;20.000;2023-02-03T11:36:33;7.10;;;3.90;;
48897;SDS011;34713;50.038;20.000;2023-02-03T11:39:08;12.00;;;3.70;;
48897;SDS011;34713;50.038;20.000;2023-02-03T11:41:37;8.50;;;4.20;;
48897;SDS011;34713;50.038;20.000;2023-02-03T11:44:11;7.80;;;4.20;;
48897;SDS011;34713;50.038;20.000;2023-02-03T11:46:41;8.00;;;4.20;;
48897;SDS011;34713;50.038;20.000;2023-02-03T11:54:39;8.80;;;4.70;;
48897;SDS011;34713;50.038;20.000;2023-02-03T12:00:37;11.50;;;4.80;;
48897;SDS011;34713;50.038;20.000;2023-02-03T12:22:27;8.60;;;5.00;;
48897;SDS011;34713;50.038;20.000;2023-02-03T12:25:30;10.10;;;5.70;;
48897;SDS011;34713;50.038;20.000;2023-02-03T12:31:15;12.20;;;6.30;;
48897;SDS011;34713;50.038;20.000;2023-02-03T12:36:57;13.00;;;5.70;;
48897;SDS011;34713;50.038;20.000;2023-02-03T12:39:32;9.70;;;5.60;;
48897;SDS011;34713;50.038;20.000;2023-02-03T12:42:02;12.20;;;5.40;;
48897;SDS011;34713;50.038;20.000;2023-02-03T12:44:42;10.00;;;4.90;;
48897;SDS011;34713;50.038;20.000;2023-02-03T12:50:16;9.00;;;5.00;;
48897;SDS011;34713;50.038;20.000;2023-02-03T12:52:59;10.00;;;4.40;;
48897;SDS011;34713;50.038;20.000;2023-02-03T12:58:11;8.30;;;4.30;;
48897;SDS011;34713;50.038;20.000;2023-02-03T13:03:14;14.80;;;4.50;;
48897;SDS011;34713;50.038;20.000;2023-02-03T13:09:03;5.70;;;4.00;;
48897;SDS011;34713;50.038;20.000;2023-02-03T13:11:39;9.80;;;4.20;;
48897;SDS011;34713;50.038;20.000;2023-02-03T13:14:11;7.00;;;4.20;;
48897;SDS011;34713;50.038;20.000;2023-02-03T13:16:41;9.60;;;4.80;;
48897;SDS011;34713;50.038;20.000;2023-02-03T13:19:17;9.50;;;4.30;;
48897;SDS011;34713;50.038;20.000;2023-02-03T13:21:47;9.30;;;4.40;;
48897;SDS011;34713;50.038;20.000;2023-02-03T13:24:16;6.80;;;4.10;;
48897;SDS011;34713;50.038;20.000;2023-02-03T13:26:53;10.30;;;3.90;;
48897;SDS011;34713;50.038;20.000;2023-02-03T13:29:33;7.60;;;4.00;;
48897;SDS011;34713;50.038;20.000;2023-02-03T13:34:58;7.70;;;4.30;;
48897;SDS011;34713;50.038;20.000;2023-02-03T13:42:30;8.50;;;4.30;;
48897;SDS011;34713;50.038;20.000;2023-02-03T13:45:01;7.00;;;4.00;;
48897;SDS011;34713;50.038;20.000;2023-02-03T13:47:29;5.70;;;3.50;;
48897;SDS011;34713;50.038;20.000;2023-02-03T13:49:58;6.50;;;3.30;;
48897;SDS011;34713;50.038;20.000;2023-02-03T13:52:28;5.00;;;3.30;;
48897;SDS011;34713;50.038;20.000;2023-02-03T13:54:58;5.90;;;3.40;;
48897;SDS011;34713;50.038;20.000;2023-02-03T13:57:28;4.20;;;2.50;;
48897;SDS011;34713;50.038;20.000;2023-02-03T14:00:00;5.80;;;2.90;;
48897;SDS011;34713;50.038;20.000;2023-02-03T14:02:29;4.60;;;2.70;;
48897;SDS011;34713;50.038;20.000;2023-02-03T14:05:06;4.50;;;2.70;;
48897;SDS011;34713;50.038;20.000;2023-02-03T14:07:54;4.90;;;2.50;;
48897;SDS011;34713;50.038;20.000;2023-02-03T14:10:21;2.90;;;2.20;;
48897;SDS011;34713;50.038;20.000;2023-02-03T14:18:42;5.10;;;2.30;;
48897;SDS011;34713;50.038;20.000;2023-02-03T14:23:18;4.30;;;2.30;;
48897;SDS011;34713;50.038;20.000;2023-02-03T14:25:48;3.60;;;2.00;;
48897;SDS011;34713;50.038;20.000;2023-02-03T14:28:19;3.70;;;2.00;;
48897;SDS011;34713;50.038;20.000;2023-02-03T14:31:04;4.40;;;2.40;;
48897;SDS011;34713;50.038;20.000;2023-02-03T14:39:01;3.90;;;2.40;;
48897;SDS011;34713;50.038;20.000;2023-02-03T14:44:08;3.90;;;2.30;;
48897;SDS011;34713;50.038;20.000;2023-02-03T14:46:44;4.30;;;2.70;;
48897;SDS011;34713;50.038;20.000;2023-02-03T14:49:41;4.00;;;2.50;;
48897;SDS011;34713;50.038;20.000;2023-02-03T14:52:25;5.40;;;2.60;;
48897;SDS011;34713;50.038;20.000;2023-02-03T14:58:05;4.50;;;2.40;;
48897;SDS011;34713;50.038;20.000;2023-02-03T15:00:39;3.80;;;2.00;;
48897;SDS011;34713;50.038;20.000;2023-02-03T15:05:42;3.30;;;1.90;;
48897;SDS011;34713;50.038;20.000;2023-02-03T15:10:54;3.30;;;1.60;;
48897;SDS011;34713;50.038;20.000;2023-02-03T15:13:25;3.10;;;1.90;;
48897;SDS011;34713;50.038;20.000;2023-02-03T15:15:54;2.90;;;1.90;;
48897;SDS011;34713;50.038;20.000;2023-02-03T15:18:30;4.60;;;2.50;;
48897;SDS011;34713;50.038;20.000;2023-02-03T15:20:58;4.50;;;2.00;;
48897;SDS011;34713;50.038;20.000;2023-02-03T15:23:26;4.30;;;2.60;;
48897;SDS011;34713;50.038;20.000;2023-02-03T15:25:55;4.40;;;2.60;;
48897;SDS011;34713;50.038;20.000;2023-02-03T15:28:26;4.00;;;2.90;;
48897;SDS011;34713;50.038;20.000;2023-02-03T15:30:56;5.40;;;3.10;;
48897;SDS011;34713;50.038;20.000;2023-02-03T15:33:28;5.50;;;3.50;;
48897;SDS011;34713;50.038;20.000;2023-02-03T15:35:58;4.80;;;2.80;;
48897;SDS011;34713;50.038;20.000;2023-02-03T15:38:30;4.30;;;2.60;;
48897;SDS011;34713;50.038;20.000;2023-02-03T15:41:00;5.00;;;3.20;;
48897;SDS011;34713;50.038;20.000;2023-02-03T15:43:40;5.10;;;3.10;;
48897;SDS011;34713;50.038;20.000;2023-02-03T15:51:41;4.00;;;2.60;;
48897;SDS011;34713;50.038;20.000;2023-02-03T15:57:22;5.30;;;3.10;;
48897;SDS011;34713;50.038;20.000;2023-02-03T15:59:52;6.10;;;4.20;;
48897;SDS011;34713;50.038;20.000;2023-02-03T16:02:26;5.40;;;2.70;;
48897;SDS011;34713;50.038;20.000;2023-02-03T16:04:54;6.50;;;3.30;;
48897;SDS011;34713;50.038;20.000;2023-02-03T16:07:22;6.20;;;3.30;;
48897;SDS011;34713;50.038;20.000;2023-02-03T16:09:52;6.40;;;3.20;;
48897;SDS011;34713;50.038;20.000;2023-02-03T16:15:00;6.60;;;4.00;;
48897;SDS011;34713;50.038;20.000;2023-02-03T16:17:32;6.70;;;3.30;;
48897;SDS011;34713;50.038;20.000;2023-02-03T16:22:45;8.90;;;3.70;;
48897;SDS011;34713;50.038;20.000;2023-02-03T16:25:16;5.70;;;3.70;;
48897;SDS011;34713;50.038;20.000;2023-02-03T16:28:12;6.20;;;3.80;;
48897;SDS011;34713;50.038;20.000;2023-02-03T16:31:01;6.20;;;3.90;;
48897;SDS011;34713;50.038;20.000;2023-02-03T16:33:54;7.50;;;4.00;;
48897;SDS011;34713;50.038;20.000;2023-02-03T16:36:40;10.50;;;4.40;;
48897;SDS011;34713;50.038;20.000;2023-02-03T16:39:26;7.10;;;3.90;;
48897;SDS011;34713;50.038;20.000;2023-02-03T16:45:01;6.20;;;2.90;;
48897;SDS011;34713;50.038;20.000;2023-02-03T16:47:46;5.30;;;3.40;;
48897;SDS011;34713;50.038;20.000;2023-02-03T16:50:32;5.60;;;2.80;;
48897;SDS011;34713;50.038;20.000;2023-02-03T16:53:19;5.10;;;2.90;;
48897;SDS011;34713;50.038;20.000;2023-02-03T16:55:56;6.30;;;3.80;;
48897;SDS011;34713;50.038;20.000;2023-02-03T16:58:27;6.20;;;3.00;;
48897;SDS011;34713;50.038;20.000;2023-02-03T17:00:54;6.00;;;3.10;;
48897;SDS011;34713;50.038;20.000;2023-02-03T17:03:23;8.10;;;3.40;;
48897;SDS011;34713;50.038;20.000;2023-02-03T17:05:52;7.70;;;3.20;;
48897;SDS011;34713;50.038;20.000;2023-02-03T17:08:20;6.10;;;2.90;;
48897;SDS011;34713;50.038;20.000;2023-02-03T17:10:47;8.10;;;3.70;;
48897;SDS011;34713;50.038;20.000;2023-02-03T17:13:15;9.10;;;4.00;;
48897;SDS011;34713;50.038;20.000;2023-02-03T17:15:43;7.70;;;3.50;;
48897;SDS011;34713;50.038;20.000;2023-02-03T17:18:12;9.50;;;4.10;;